sensor_id;sensor_type;location;lat;lon;timestamp;pressure;altitude;pressure_sealevel;temperature;humidity
64551;BME280;50945;44.472;-123.352;2023-03-25T00:01:07;101534.56;;;6.49;73.92
64551;BME280;50945;44.472;-123.352;2023-03-25T00:03:39;101538.97;;;6.18;74.80
64551;BME280;50945;44.472;-123.352;2023-03-25T00:06:18;101556.75;;;5.88;76.49
64551;BME280;50945;44.472;-123.352;2023-03-25T00:08:45;101554.19;;;5.30;76.17
64551;BME280;50945;44.472;-123.352;2023-03-25T00:11:11;101576.13;;;4.80;79.07
64551;BME280;50945;44.472;-123.352;2023-03-25T00:13:38;101569.22;;;4.52;81.83
64551;BME280;50945;44.472;-123.352;2023-03-25T00:16:05;101561.91;;;4.41;80.69
64551;BME280;50945;44.472;-123.352;2023-03-25T00:18:32;101556.28;;;4.44;83.23
64551;BME280;50945;44.472;-123.352;2023-03-25T00:20:59;101561.00;;;4.53;85.39
64551;BME280;50945;44.472;-123.352;2023-03-25T00:23:28;101555.31;;;4.56;84.57
64551;BME280;50945;44.472;-123.352;2023-03-25T00:25:54;101534.25;;;4.49;84.78
64551;BME280;50945;44.472;-123.352;2023-03-25T00:28:30;101528.97;;;4.23;83.02
64551;BME280;50945;44.472;-123.352;2023-03-25T00:31:07;101526.06;;;4.13;83.04
64551;BME280;50945;44.472;-123.352;2023-03-25T00:33:34;101521.56;;;4.01;83.24
64551;BME280;50945;44.472;-123.352;2023-03-25T00:36:00;101523.53;;;3.99;84.09
64551;BME280;50945;44.472;-123.352;2023-03-25T00:38:31;101528.50;;;4.05;83.55
64551;BME280;50945;44.472;-123.352;2023-03-25T00:41:19;101532.19;;;4.28;85.05
64551;BME280;50945;44.472;-123.352;2023-03-25T00:43:55;101525.91;;;4.52;84.31
64551;BME280;50945;44.472;-123.352;2023-03-25T00:46:23;101509.34;;;4.68;83.72
64551;BME280;50945;44.472;-123.352;2023-03-25T00:48:51;101511.44;;;4.75;80.38
64551;BME280;50945;44.472;-123.352;2023-03-25T00:51:18;101504.31;;;4.74;78.10
64551;BME280;50945;44.472;-123.352;2023-03-25T00:53:56;101521.03;;;4.80;79.60
64551;BME280;50945;44.472;-123.352;2023-03-25T00:56:25;101509.97;;;4.71;77.84
64551;BME280;50945;44.472;-123.352;2023-03-25T00:58:51;101511.03;;;4.69;78.38
64551;BME280;50945;44.472;-123.352;2023-03-25T01:01:20;101518.91;;;4.61;78.71
64551;BME280;50945;44.472;-123.352;2023-03-25T01:03:53;101525.41;;;4.58;77.92
64551;BME280;50945;44.472;-123.352;2023-03-25T01:06:27;101524.66;;;4.56;78.06
64551;BME280;50945;44.472;-123.352;2023-03-25T01:08:58;101527.13;;;4.48;78.63
64551;BME280;50945;44.472;-123.352;2023-03-25T01:11:31;101537.44;;;4.43;79.49
64551;BME280;50945;44.472;-123.352;2023-03-25T01:14:00;101542.44;;;4.36;80.55
64551;BME280;50945;44.472;-123.352;2023-03-25T01:16:27;101550.88;;;4.31;81.09
64551;BME280;50945;44.472;-123.352;2023-03-25T01:18:54;101547.66;;;4.26;81.85
64551;BME280;50945;44.472;-123.352;2023-03-25T01:21:21;101554.25;;;4.11;82.53
64551;BME280;50945;44.472;-123.352;2023-03-25T01:23:47;101541.66;;;4.10;82.73
64551;BME280;50945;44.472;-123.352;2023-03-25T01:26:13;101532.69;;;4.09;82.84
64551;BME280;50945;44.472;-123.352;2023-03-25T01:28:41;101537.38;;;4.07;82.12
64551;BME280;50945;44.472;-123.352;2023-03-25T01:31:10;101529.78;;;3.99;82.49
64551;BME280;50945;44.472;-123.352;2023-03-25T01:33:37;101533.03;;;4.05;83.98
64551;BME280;50945;44.472;-123.352;2023-03-25T01:36:04;101538.22;;;4.08;83.88
64551;BME280;50945;44.472;-123.352;2023-03-25T01:38:37;101530.50;;;4.14;83.73
64551;BME280;50945;44.472;-123.352;2023-03-25T01:41:04;101528.44;;;4.18;83.09
64551;BME280;50945;44.472;-123.352;2023-03-25T01:43:31;101541.22;;;4.16;84.38
64551;BME280;50945;44.472;-123.352;2023-03-25T01:45:57;101531.38;;;4.15;85.22
64551;BME280;50945;44.472;-123.352;2023-03-25T01:48:36;101530.63;;;4.13;84.79
64551;BME280;50945;44.472;-123.352;2023-03-25T01:51:20;101533.66;;;4.08;84.58
64551;BME280;50945;44.472;-123.352;2023-03-25T01:53:50;101544.84;;;4.04;83.22
64551;BME280;50945;44.472;-123.352;2023-03-25T01:56:31;101557.00;;;3.98;82.84
64551;BME280;50945;44.472;-123.352;2023-03-25T01:59:00;101554.59;;;3.93;83.64
64551;BME280;50945;44.472;-123.352;2023-03-25T02:01:27;101543.38;;;3.87;84.37
64551;BME280;50945;44.472;-123.352;2023-03-25T02:03:57;101551.31;;;3.77;85.02
64551;BME280;50945;44.472;-123.352;2023-03-25T02:06:43;101549.25;;;3.68;82.14
64551;BME280;50945;44.472;-123.352;2023-03-25T02:09:11;101544.81;;;3.67;83.47
64551;BME280;50945;44.472;-123.352;2023-03-25T02:11:38;101550.44;;;3.64;83.97
64551;BME280;50945;44.472;-123.352;2023-03-25T02:14:14;101555.00;;;3.63;83.79
64551;BME280;50945;44.472;-123.352;2023-03-25T02:16:48;101559.66;;;3.61;83.97
64551;BME280;50945;44.472;-123.352;2023-03-25T02:28:47;101551.88;;;3.43;85.36
64551;BME280;50945;44.472;-123.352;2023-03-25T02:31:36;101554.59;;;3.43;85.64
64551;BME280;50945;44.472;-123.352;2023-03-25T02:34:18;101555.53;;;3.42;85.49
64551;BME280;50945;44.472;-123.352;2023-03-25T02:42:26;101571.13;;;3.26;87.06
64551;BME280;50945;44.472;-123.352;2023-03-25T02:45:05;101560.63;;;3.21;87.14
64551;BME280;50945;44.472;-123.352;2023-03-25T02:47:43;101557.28;;;3.18;86.77
64551;BME280;50945;44.472;-123.352;2023-03-25T02:50:26;101557.50;;;3.15;87.19
64551;BME280;50945;44.472;-123.352;2023-03-25T02:52:58;101560.53;;;3.10;86.78
64551;BME280;50945;44.472;-123.352;2023-03-25T02:55:29;101570.78;;;3.05;87.58
64551;BME280;50945;44.472;-123.352;2023-03-25T02:57:57;101569.94;;;3.04;88.21
64551;BME280;50945;44.472;-123.352;2023-03-25T03:00:30;101559.13;;;3.04;87.99
64551;BME280;50945;44.472;-123.352;2023-03-25T03:03:01;101549.38;;;3.02;87.61
64551;BME280;50945;44.472;-123.352;2023-03-25T03:05:37;101548.63;;;3.00;88.26
64551;BME280;50945;44.472;-123.352;2023-03-25T03:19:35;101572.16;;;2.85;87.83
64551;BME280;50945;44.472;-123.352;2023-03-25T03:22:35;101579.50;;;2.83;87.53
64551;BME280;50945;44.472;-123.352;2023-03-25T03:25:22;101584.16;;;2.81;88.45
64551;BME280;50945;44.472;-123.352;2023-03-25T03:28:13;101588.78;;;2.79;88.17
64551;BME280;50945;44.472;-123.352;2023-03-25T03:30:56;101586.22;;;2.77;88.24
64551;BME280;50945;44.472;-123.352;2023-03-25T03:36:21;101589.22;;;2.73;87.75
64551;BME280;50945;44.472;-123.352;2023-03-25T03:38:53;101583.16;;;2.69;87.78
64551;BME280;50945;44.472;-123.352;2023-03-25T03:41:24;101579.69;;;2.67;87.67
64551;BME280;50945;44.472;-123.352;2023-03-25T03:44:02;101581.06;;;2.60;87.68
64551;BME280;50945;44.472;-123.352;2023-03-25T03:46:33;101582.38;;;2.54;88.53
64551;BME280;50945;44.472;-123.352;2023-03-25T03:49:05;101573.59;;;2.51;88.47
64551;BME280;50945;44.472;-123.352;2023-03-25T03:51:36;101576.59;;;2.46;88.14
64551;BME280;50945;44.472;-123.352;2023-03-25T03:54:29;101577.88;;;2.40;88.46
64551;BME280;50945;44.472;-123.352;2023-03-25T03:57:00;101572.88;;;2.34;88.96
64551;BME280;50945;44.472;-123.352;2023-03-25T04:02:33;101590.34;;;2.28;90.11
64551;BME280;50945;44.472;-123.352;2023-03-25T04:05:07;101592.19;;;2.28;90.43
64551;BME280;50945;44.472;-123.352;2023-03-25T04:07:42;101596.59;;;2.29;90.42
64551;BME280;50945;44.472;-123.352;2023-03-25T04:10:29;101603.72;;;2.30;90.11
64551;BME280;50945;44.472;-123.352;2023-03-25T04:13:08;101614.63;;;2.28;89.39
64551;BME280;50945;44.472;-123.352;2023-03-25T04:15:40;101620.22;;;2.25;89.71
64551;BME280;50945;44.472;-123.352;2023-03-25T04:18:07;101624.56;;;2.28;89.28
64551;BME280;50945;44.472;-123.352;2023-03-25T04:20:34;101624.38;;;2.31;90.04
64551;BME280;50945;44.472;-123.352;2023-03-25T04:23:02;101634.09;;;2.34;90.93
64551;BME280;50945;44.472;-123.352;2023-03-25T04:25:34;101628.69;;;2.34;89.80
64551;BME280;50945;44.472;-123.352;2023-03-25T04:28:00;101635.69;;;2.36;90.80
64551;BME280;50945;44.472;-123.352;2023-03-25T04:30:27;101633.00;;;2.36;90.16
64551;BME280;50945;44.472;-123.352;2023-03-25T04:32:54;101630.44;;;2.35;90.38
64551;BME280;50945;44.472;-123.352;2023-03-25T04:35:20;101638.53;;;2.35;89.55
64551;BME280;50945;44.472;-123.352;2023-03-25T04:37:47;101636.69;;;2.35;89.02
64551;BME280;50945;44.472;-123.352;2023-03-25T04:40:19;101626.84;;;2.34;90.25
64551;BME280;50945;44.472;-123.352;2023-03-25T04:42:46;101615.94;;;2.36;91.00
64551;BME280;50945;44.472;-123.352;2023-03-25T04:45:15;101621.16;;;2.39;91.34
64551;BME280;50945;44.472;-123.352;2023-03-25T04:47:47;101614.69;;;2.41;91.26
64551;BME280;50945;44.472;-123.352;2023-03-25T04:50:21;101613.81;;;2.41;91.74
64551;BME280;50945;44.472;-123.352;2023-03-25T04:52:48;101617.28;;;2.43;94.14
64551;BME280;50945;44.472;-123.352;2023-03-25T04:55:14;101610.94;;;2.44;94.93
64551;BME280;50945;44.472;-123.352;2023-03-25T04:57:47;101619.78;;;2.46;93.20
64551;BME280;50945;44.472;-123.352;2023-03-25T05:00:16;101617.94;;;2.46;92.55
64551;BME280;50945;44.472;-123.352;2023-03-25T05:02:53;101619.59;;;2.49;92.76
64551;BME280;50945;44.472;-123.352;2023-03-25T05:05:24;101617.56;;;2.53;92.43
64551;BME280;50945;44.472;-123.352;2023-03-25T05:07:52;101617.31;;;2.56;92.23
64551;BME280;50945;44.472;-123.352;2023-03-25T05:10:22;101617.97;;;2.59;92.32
64551;BME280;50945;44.472;-123.352;2023-03-25T05:12:49;101615.19;;;2.61;92.39
64551;BME280;50945;44.472;-123.352;2023-03-25T05:15:16;101623.94;;;2.64;92.66
64551;BME280;50945;44.472;-123.352;2023-03-25T05:17:43;101626.56;;;2.66;93.68
64551;BME280;50945;44.472;-123.352;2023-03-25T05:20:11;101618.53;;;2.64;93.69
64551;BME280;50945;44.472;-123.352;2023-03-25T05:22:39;101613.28;;;2.63;93.04
64551;BME280;50945;44.472;-123.352;2023-03-25T05:25:08;101612.38;;;2.62;93.86
64551;BME280;50945;44.472;-123.352;2023-03-25T05:27:35;101606.88;;;2.64;93.84
64551;BME280;50945;44.472;-123.352;2023-03-25T05:30:02;101598.78;;;2.64;93.50
64551;BME280;50945;44.472;-123.352;2023-03-25T05:32:29;101607.75;;;2.64;93.75
64551;BME280;50945;44.472;-123.352;2023-03-25T05:34:58;101610.34;;;2.66;93.58
64551;BME280;50945;44.472;-123.352;2023-03-25T05:37:25;101607.56;;;2.67;93.49
64551;BME280;50945;44.472;-123.352;2023-03-25T05:39:51;101611.91;;;2.70;93.92
64551;BME280;50945;44.472;-123.352;2023-03-25T05:42:18;101607.34;;;2.71;93.93
64551;BME280;50945;44.472;-123.352;2023-03-25T05:44:52;101606.25;;;2.73;93.72
64551;BME280;50945;44.472;-123.352;2023-03-25T05:47:23;101600.75;;;2.75;93.78
64551;BME280;50945;44.472;-123.352;2023-03-25T05:49:51;101592.56;;;2.76;93.44
64551;BME280;50945;44.472;-123.352;2023-03-25T05:52:19;101592.56;;;2.76;93.63
64551;BME280;50945;44.472;-123.352;2023-03-25T05:54:49;101584.56;;;2.75;94.09
64551;BME280;50945;44.472;-123.352;2023-03-25T05:57:17;101585.75;;;2.71;94.39
64551;BME280;50945;44.472;-123.352;2023-03-25T05:59:43;101577.75;;;2.69;94.00
64551;BME280;50945;44.472;-123.352;2023-03-25T06:02:14;101586.69;;;2.70;94.20
64551;BME280;50945;44.472;-123.352;2023-03-25T06:04:41;101585.75;;;2.71;94.53
64551;BME280;50945;44.472;-123.352;2023-03-25T06:07:16;101585.75;;;2.71;94.38
64551;BME280;50945;44.472;-123.352;2023-03-25T06:09:46;101583.06;;;2.71;94.33
64551;BME280;50945;44.472;-123.352;2023-03-25T06:12:16;101576.00;;;2.68;94.86
64551;BME280;50945;44.472;-123.352;2023-03-25T06:14:45;101582.41;;;2.67;94.43
64551;BME280;50945;44.472;-123.352;2023-03-25T06:17:12;101577.19;;;2.64;94.03
64551;BME280;50945;44.472;-123.352;2023-03-25T06:19:38;101566.69;;;2.59;93.64
64551;BME280;50945;44.472;-123.352;2023-03-25T06:22:09;101565.28;;;2.54;94.32
64551;BME280;50945;44.472;-123.352;2023-03-25T06:24:36;101557.50;;;2.49;94.74
64551;BME280;50945;44.472;-123.352;2023-03-25T06:27:04;101552.31;;;2.46;93.62
64551;BME280;50945;44.472;-123.352;2023-03-25T06:29:34;101542.69;;;2.42;93.88
64551;BME280;50945;44.472;-123.352;2023-03-25T06:32:04;101530.25;;;2.39;94.17
64551;BME280;50945;44.472;-123.352;2023-03-25T06:34:30;101535.75;;;2.38;94.49
64551;BME280;50945;44.472;-123.352;2023-03-25T06:37:00;101530.25;;;2.39;94.59
64551;BME280;50945;44.472;-123.352;2023-03-25T06:39:28;101530.25;;;2.39;94.47
64551;BME280;50945;44.472;-123.352;2023-03-25T06:41:58;101522.91;;;2.41;94.15
64551;BME280;50945;44.472;-123.352;2023-03-25T06:44:26;101521.97;;;2.42;93.93
64551;BME280;50945;44.472;-123.352;2023-03-25T06:46:53;101525.50;;;2.43;94.38
64551;BME280;50945;44.472;-123.352;2023-03-25T06:49:20;101517.22;;;2.46;95.20
64551;BME280;50945;44.472;-123.352;2023-03-25T06:51:46;101528.75;;;2.48;95.32
64551;BME280;50945;44.472;-123.352;2023-03-25T06:54:12;101526.72;;;2.52;95.10
64551;BME280;50945;44.472;-123.352;2023-03-25T06:56:39;101526.44;;;2.56;94.88
64551;BME280;50945;44.472;-123.352;2023-03-25T06:59:06;101521.88;;;2.57;94.76
64551;BME280;50945;44.472;-123.352;2023-03-25T07:01:32;101518.22;;;2.58;94.52
64551;BME280;50945;44.472;-123.352;2023-03-25T07:03:58;101523.41;;;2.61;94.67
64551;BME280;50945;44.472;-123.352;2023-03-25T07:06:24;101513.59;;;2.60;94.39
64551;BME280;50945;44.472;-123.352;2023-03-25T07:08:51;101507.53;;;2.56;93.71
64551;BME280;50945;44.472;-123.352;2023-03-25T07:11:24;101507.72;;;2.53;93.85
64551;BME280;50945;44.472;-123.352;2023-03-25T07:13:51;101518.41;;;2.42;92.87
64551;BME280;50945;44.472;-123.352;2023-03-25T07:16:20;101521.03;;;2.29;92.62
64551;BME280;50945;44.472;-123.352;2023-03-25T07:18:46;101521.97;;;2.15;92.11
64551;BME280;50945;44.472;-123.352;2023-03-25T07:21:13;101510.16;;;2.03;91.99
64551;BME280;50945;44.472;-123.352;2023-03-25T07:23:39;101517.97;;;1.94;92.11
64551;BME280;50945;44.472;-123.352;2023-03-25T07:26:05;101520.53;;;1.82;92.27
64551;BME280;50945;44.472;-123.352;2023-03-25T07:28:32;101519.47;;;1.70;92.34
64551;BME280;50945;44.472;-123.352;2023-03-25T07:30:58;101521.06;;;1.60;92.45
64551;BME280;50945;44.472;-123.352;2023-03-25T07:33:24;101515.19;;;1.54;93.10
64551;BME280;50945;44.472;-123.352;2023-03-25T07:35:50;101516.44;;;1.48;93.06
64551;BME280;50945;44.472;-123.352;2023-03-25T07:38:16;101518.47;;;1.44;93.59
64551;BME280;50945;44.472;-123.352;2023-03-25T07:40:43;101525.78;;;1.42;93.52
64551;BME280;50945;44.472;-123.352;2023-03-25T07:43:09;101521.63;;;1.37;93.16
64551;BME280;50945;44.472;-123.352;2023-03-25T07:45:35;101511.25;;;1.30;93.84
64551;BME280;50945;44.472;-123.352;2023-03-25T07:48:01;101502.50;;;1.27;94.07
64551;BME280;50945;44.472;-123.352;2023-03-25T07:50:28;101499.13;;;1.23;94.30
64551;BME280;50945;44.472;-123.352;2023-03-25T07:52:54;101492.75;;;1.24;95.03
64551;BME280;50945;44.472;-123.352;2023-03-25T07:55:21;101487.50;;;1.23;95.02
64551;BME280;50945;44.472;-123.352;2023-03-25T07:57:47;101483.16;;;1.20;95.16
64551;BME280;50945;44.472;-123.352;2023-03-25T08:00:13;101474.31;;;1.18;95.29
64551;BME280;50945;44.472;-123.352;2023-03-25T08:02:40;101476.06;;;1.19;95.26
64551;BME280;50945;44.472;-123.352;2023-03-25T08:05:06;101476.06;;;1.19;95.24
64551;BME280;50945;44.472;-123.352;2023-03-25T08:07:33;101480.56;;;1.19;95.37
64551;BME280;50945;44.472;-123.352;2023-03-25T08:09:59;101489.53;;;1.19;95.70
64551;BME280;50945;44.472;-123.352;2023-03-25T08:12:25;101490.66;;;1.15;95.16
64551;BME280;50945;44.472;-123.352;2023-03-25T08:14:51;101495.47;;;1.10;95.41
64551;BME280;50945;44.472;-123.352;2023-03-25T08:17:18;101495.75;;;1.05;94.73
64551;BME280;50945;44.472;-123.352;2023-03-25T08:19:44;101498.72;;;1.01;95.07
64551;BME280;50945;44.472;-123.352;2023-03-25T08:22:10;101482.00;;;0.95;94.96
64551;BME280;50945;44.472;-123.352;2023-03-25T08:24:36;101464.13;;;0.94;95.58
64551;BME280;50945;44.472;-123.352;2023-03-25T08:27:03;101471.63;;;0.89;95.41
64551;BME280;50945;44.472;-123.352;2023-03-25T08:29:29;101472.88;;;0.84;95.17
64551;BME280;50945;44.472;-123.352;2023-03-25T08:31:59;101466.81;;;0.80;95.72
64551;BME280;50945;44.472;-123.352;2023-03-25T08:34:26;101463.44;;;0.77;95.36
64551;BME280;50945;44.472;-123.352;2023-03-25T08:36:52;101454.69;;;0.73;95.48
64551;BME280;50945;44.472;-123.352;2023-03-25T08:39:18;101458.31;;;0.72;96.13
64551;BME280;50945;44.472;-123.352;2023-03-25T08:41:46;101446.63;;;0.73;96.09
64551;BME280;50945;44.472;-123.352;2023-03-25T08:44:12;101458.22;;;0.73;95.38
64551;BME280;50945;44.472;-123.352;2023-03-25T08:46:39;101448.63;;;0.69;95.37
64551;BME280;50945;44.472;-123.352;2023-03-25T08:49:05;101447.84;;;0.67;95.41
64551;BME280;50945;44.472;-123.352;2023-03-25T08:51:31;101433.50;;;0.67;95.21
64551;BME280;50945;44.472;-123.352;2023-03-25T08:53:58;101432.56;;;0.68;95.42
64551;BME280;50945;44.472;-123.352;2023-03-25T08:56:25;101428.13;;;0.67;97.29
64551;BME280;50945;44.472;-123.352;2023-03-25T08:58:51;101420.06;;;0.67;96.17
64551;BME280;50945;44.472;-123.352;2023-03-25T09:01:17;101410.38;;;0.64;96.16
64551;BME280;50945;44.472;-123.352;2023-03-25T09:03:46;101404.09;;;0.64;95.91
64551;BME280;50945;44.472;-123.352;2023-03-25T09:06:12;101413.16;;;0.63;95.72
64551;BME280;50945;44.472;-123.352;2023-03-25T09:08:38;101417.63;;;0.62;96.16
64551;BME280;50945;44.472;-123.352;2023-03-25T09:11:05;101414.94;;;0.62;96.57
64551;BME280;50945;44.472;-123.352;2023-03-25T09:13:32;101410.53;;;0.61;95.62
64551;BME280;50945;44.472;-123.352;2023-03-25T09:15:58;101390.84;;;0.61;95.85
64551;BME280;50945;44.472;-123.352;2023-03-25T09:18:24;101399.88;;;0.60;95.77
64551;BME280;50945;44.472;-123.352;2023-03-25T09:20:50;101418.72;;;0.60;96.48
64551;BME280;50945;44.472;-123.352;2023-03-25T09:23:17;101412.47;;;0.59;96.57
64551;BME280;50945;44.472;-123.352;2023-03-25T09:25:43;101411.56;;;0.59;96.95
64551;BME280;50945;44.472;-123.352;2023-03-25T09:28:10;101418.63;;;0.61;97.23
64551;BME280;50945;44.472;-123.352;2023-03-25T09:30:37;101414.94;;;0.62;96.75
64551;BME280;50945;44.472;-123.352;2023-03-25T09:33:03;101423.91;;;0.63;96.37
64551;BME280;50945;44.472;-123.352;2023-03-25T09:35:29;101413.25;;;0.61;96.46
64551;BME280;50945;44.472;-123.352;2023-03-25T09:37:55;101408.72;;;0.62;96.41
64551;BME280;50945;44.472;-123.352;2023-03-25T09:40:21;101411.31;;;0.63;96.35
64551;BME280;50945;44.472;-123.352;2023-03-25T09:45:47;101411.56;;;0.59;96.34
64551;BME280;50945;44.472;-123.352;2023-03-25T09:48:28;101410.13;;;0.53;97.15
64551;BME280;50945;44.472;-123.352;2023-03-25T09:51:04;101396.91;;;0.50;96.82
64551;BME280;50945;44.472;-123.352;2023-03-25T09:56:27;101394.00;;;0.53;97.64
64551;BME280;50945;44.472;-123.352;2023-03-25T09:59:16;101397.44;;;0.55;97.38
64551;BME280;50945;44.472;-123.352;2023-03-25T10:10:02;101413.97;;;0.49;97.96
64551;BME280;50945;44.472;-123.352;2023-03-25T10:12:51;101413.91;;;0.50;97.64
64551;BME280;50945;44.472;-123.352;2023-03-25T10:21:06;101411.41;;;0.62;98.19
64551;BME280;50945;44.472;-123.352;2023-03-25T10:24:11;101402.97;;;0.68;98.20
64551;BME280;50945;44.472;-123.352;2023-03-25T10:26:44;101392.78;;;0.73;98.10
64551;BME280;50945;44.472;-123.352;2023-03-25T10:29:40;101396.16;;;0.77;97.71
64551;BME280;50945;44.472;-123.352;2023-03-25T10:32:23;101388.84;;;0.79;97.88
64551;BME280;50945;44.472;-123.352;2023-03-25T10:34:54;101376.22;;;0.79;97.79
64551;BME280;50945;44.472;-123.352;2023-03-25T10:37:26;101380.84;;;0.77;97.01
64551;BME280;50945;44.472;-123.352;2023-03-25T10:40:08;101375.66;;;0.74;96.79
64551;BME280;50945;44.472;-123.352;2023-03-25T10:42:44;101369.50;;;0.72;97.79
64551;BME280;50945;44.472;-123.352;2023-03-25T10:45:14;101381.22;;;0.71;97.66
64551;BME280;50945;44.472;-123.352;2023-03-25T10:47:42;101395.66;;;0.70;98.93
64551;BME280;50945;44.472;-123.352;2023-03-25T10:50:15;101403.63;;;0.71;98.48
64551;BME280;50945;44.472;-123.352;2023-03-25T10:52:42;101396.31;;;0.73;96.88
64551;BME280;50945;44.472;-123.352;2023-03-25T10:55:30;101395.94;;;0.80;96.57
64551;BME280;50945;44.472;-123.352;2023-03-25T10:57:59;101389.28;;;0.85;97.13
64551;BME280;50945;44.472;-123.352;2023-03-25T11:00:27;101394.41;;;0.90;96.09
64551;BME280;50945;44.472;-123.352;2023-03-25T11:02:55;101394.97;;;0.95;97.26
64551;BME280;50945;44.472;-123.352;2023-03-25T11:05:24;101395.81;;;0.95;97.53
64551;BME280;50945;44.472;-123.352;2023-03-25T11:07:56;101400.25;;;0.97;97.88
64551;BME280;50945;44.472;-123.352;2023-03-25T11:10:25;101409.00;;;1.00;97.84
64551;BME280;50945;44.472;-123.352;2023-03-25T11:12:54;101417.75;;;1.04;98.34
64551;BME280;50945;44.472;-123.352;2023-03-25T11:15:25;101424.56;;;1.09;98.15
64551;BME280;50945;44.472;-123.352;2023-03-25T11:20:45;101419.59;;;1.18;98.01
64551;BME280;50945;44.472;-123.352;2023-03-25T11:23:26;101425.63;;;1.21;100.00
64551;BME280;50945;44.472;-123.352;2023-03-25T11:25:54;101432.63;;;1.24;99.31
64551;BME280;50945;44.472;-123.352;2023-03-25T11:28:36;101423.38;;;1.28;98.29
64551;BME280;50945;44.472;-123.352;2023-03-25T11:31:19;101423.19;;;1.31;98.09
64551;BME280;50945;44.472;-123.352;2023-03-25T11:41:57;101434.66;;;1.35;97.08
64551;BME280;50945;44.472;-123.352;2023-03-25T11:44:28;101434.56;;;1.36;97.37
64551;BME280;50945;44.472;-123.352;2023-03-25T11:46:59;101440.78;;;1.37;97.38
64551;BME280;50945;44.472;-123.352;2023-03-25T11:49:28;101431.75;;;1.38;97.26
64551;BME280;50945;44.472;-123.352;2023-03-25T11:52:03;101432.53;;;1.40;97.41
64551;BME280;50945;44.472;-123.352;2023-03-25T11:54:32;101429.81;;;1.40;97.30
64551;BME280;50945;44.472;-123.352;2023-03-25T11:57:03;101440.03;;;1.35;96.39
64551;BME280;50945;44.472;-123.352;2023-03-25T11:59:42;101445.75;;;1.30;96.75
64551;BME280;50945;44.472;-123.352;2023-03-25T12:02:25;101454.78;;;1.29;97.13
64551;BME280;50945;44.472;-123.352;2023-03-25T12:05:08;101447.84;;;1.25;97.55
64551;BME280;50945;44.472;-123.352;2023-03-25T12:07:42;101455.28;;;1.21;97.71
64551;BME280;50945;44.472;-123.352;2023-03-25T12:19:34;101445.84;;;1.14;98.75
64551;BME280;50945;44.472;-123.352;2023-03-25T12:22:12;101446.97;;;1.10;98.72
64551;BME280;50945;44.472;-123.352;2023-03-25T12:38:51;101462.47;;;1.06;96.14
64551;BME280;50945;44.472;-123.352;2023-03-25T12:41:41;101476.50;;;1.11;96.64
64551;BME280;50945;44.472;-123.352;2023-03-25T12:44:48;101485.09;;;1.18;96.89
64551;BME280;50945;44.472;-123.352;2023-03-25T12:53:35;101475.75;;;1.09;97.64
64551;BME280;50945;44.472;-123.352;2023-03-25T12:56:42;101491.16;;;1.07;96.80
64551;BME280;50945;44.472;-123.352;2023-03-25T13:07:46;101483.34;;;0.88;96.48
64551;BME280;50945;44.472;-123.352;2023-03-25T13:10:18;101489.69;;;0.87;96.26
64551;BME280;50945;44.472;-123.352;2023-03-25T13:15:23;101486.03;;;0.88;97.81
64551;BME280;50945;44.472;-123.352;2023-03-25T13:17:55;101480.56;;;0.90;98.42
64551;BME280;50945;44.472;-123.352;2023-03-25T13:20:28;101484.91;;;0.92;98.31
64551;BME280;50945;44.472;-123.352;2023-03-25T13:22:58;101488.25;;;0.96;98.29
64551;BME280;50945;44.472;-123.352;2023-03-25T13:28:02;101495.38;;;0.97;98.08
64551;BME280;50945;44.472;-123.352;2023-03-25T13:30:37;101487.28;;;0.97;97.69
64551;BME280;50945;44.472;-123.352;2023-03-25T13:33:36;101493.75;;;0.94;97.58
64551;BME280;50945;44.472;-123.352;2023-03-25T13:36:08;101491.13;;;0.93;98.07
64551;BME280;50945;44.472;-123.352;2023-03-25T13:38:45;101494.69;;;0.93;98.10
64551;BME280;50945;44.472;-123.352;2023-03-25T13:43:57;101496.22;;;0.98;97.89
64551;BME280;50945;44.472;-123.352;2023-03-25T13:46:45;101504.31;;;0.98;97.68
64551;BME280;50945;44.472;-123.352;2023-03-25T13:49:26;101500.06;;;0.93;96.87
64551;BME280;50945;44.472;-123.352;2023-03-25T13:51:53;101500.25;;;0.90;97.42
64551;BME280;50945;44.472;-123.352;2023-03-25T13:54:36;101492.38;;;0.87;97.01
64551;BME280;50945;44.472;-123.352;2023-03-25T14:13:40;101487.53;;;0.64;96.89
64551;BME280;50945;44.472;-123.352;2023-03-25T14:16:10;101490.31;;;0.62;96.76
64551;BME280;50945;44.472;-123.352;2023-03-25T14:18:46;101489.84;;;0.55;96.89
64551;BME280;50945;44.472;-123.352;2023-03-25T14:23:47;101485.69;;;0.50;97.45
64551;BME280;50945;44.472;-123.352;2023-03-25T14:26:16;101500.25;;;0.46;97.37
64551;BME280;50945;44.472;-123.352;2023-03-25T14:28:45;101492.38;;;0.43;97.75
64551;BME280;50945;44.472;-123.352;2023-03-25T14:34:22;101497.66;;;0.44;98.05
64551;BME280;50945;44.472;-123.352;2023-03-25T14:44:34;101505.22;;;0.53;98.45
64551;BME280;50945;44.472;-123.352;2023-03-25T14:50:01;101509.94;;;0.64;98.37
64551;BME280;50945;44.472;-123.352;2023-03-25T14:52:30;101513.91;;;0.73;98.90
64551;BME280;50945;44.472;-123.352;2023-03-25T14:54:57;101520.44;;;0.83;100.00
64551;BME280;50945;44.472;-123.352;2023-03-25T14:57:27;101528.16;;;0.89;98.86
64551;BME280;50945;44.472;-123.352;2023-03-25T15:00:00;101531.34;;;0.96;98.54
64551;BME280;50945;44.472;-123.352;2023-03-25T15:02:39;101528.44;;;0.99;98.32
64551;BME280;50945;44.472;-123.352;2023-03-25T15:05:27;101522.97;;;1.01;98.15
64551;BME280;50945;44.472;-123.352;2023-03-25T15:10:43;101534.25;;;1.07;98.15
64551;BME280;50945;44.472;-123.352;2023-03-25T15:13:25;101532.97;;;1.13;97.71
64551;BME280;50945;44.472;-123.352;2023-03-25T15:16:04;101535.41;;;1.18;97.60